Time;durP1;ratioP1;P1;durP2;ratioP2;P2;SDS_P1;SDS_P2;PMS_P1;PMS_P2;Temp;Humidity;BMP_temperature;BMP_pressure;BME280_temperature;BME280_humidity;BME280_pressure;Samples;Min_cycle;Max_cycle;Signal;HPM_P1;HPM_P2
2022/08/08 00:00:13;;;;;;;2.55;1.30;;;;;;;24.30;33.07;100040.63;4134997;28;20328;-65
2022/08/08 00:02:43;;;;;;;1.05;1.02;;;;;;;24.11;33.25;100047.31;4125800;28;20264;-65
2022/08/08 00:04:58;;;;;;;1.92;1.20;;;;;;;23.69;33.94;100050.25;4129365;28;20229;-65
2022/08/08 00:07:38;;;;;;;1.95;1.27;;;;;;;24.36;33.37;100017.06;4133414;28;20301;-65
2022/08/08 00:10:10;;;;;;;1.75;1.23;;;;;;;24.94;32.72;100036.84;4134578;28;20245;-65
2022/08/08 00:12:16;;;;;;;2.50;1.50;;;;;;;24.62;32.66;100047.44;4137843;28;20618;-65
2022/08/08 00:14:56;;;;;;;1.27;1.20;;;;;;;24.02;33.48;100048.72;4135270;28;20242;-65
2022/08/08 00:17:24;;;;;;;1.42;1.20;;;;;;;24.48;32.99;100042.31;4138183;28;21058;-62
2022/08/08 00:19:43;;;;;;;3.33;1.40;;;;;;;23.81;33.92;100058.38;4137477;28;20312;-65
2022/08/08 00:21:59;;;;;;;2.38;1.40;;;;;;;24.50;33.14;100036.63;4147490;28;20237;-65
2022/08/08 00:24:25;;;;;;;2.25;1.25;;;;;;;23.95;33.65;100059.72;4139685;28;20646;-65
2022/08/08 00:26:36;;;;;;;3.05;1.30;;;;;;;23.66;33.92;100054.25;4133658;28;20248;-65
2022/08/08 00:28:41;;;;;;;2.28;1.30;;;;;;;24.33;33.16;100033.03;4136189;28;20777;-65
2022/08/08 00:30:52;;;;;;;1.63;1.40;;;;;;;24.48;32.69;100047.75;4136754;28;20291;-63
2022/08/08 00:33:21;;;;;;;3.63;1.30;;;;;;;24.14;33.52;100057.66;4136830;28;20280;-65
2022/08/08 00:35:27;;;;;;;1.80;1.35;;;;;;;24.01;33.52;100060.66;4139924;28;20225;-65
2022/08/08 00:37:36;;;;;;;3.42;1.30;;;;;;;24.01;33.33;100058.78;4140352;28;20233;-65
2022/08/08 00:40:28;;;;;;;1.40;1.10;;;;;;;23.76;33.83;100053.66;4138029;28;20260;-62
2022/08/08 00:43:21;;;;;;;1.33;1.27;;;;;;;24.15;33.40;100040.31;4133777;28;20261;-64
2022/08/08 00:45:39;;;;;;;2.13;1.40;;;;;;;23.81;33.28;100064.63;4138487;28;20228;-65
2022/08/08 00:48:08;;;;;;;1.25;1.05;;;;;;;23.91;33.49;100066.72;4133682;28;20801;-63
2022/08/08 00:50:48;;;;;;;4.53;1.30;;;;;;;23.84;33.81;100066.84;4137465;28;20268;-65
2022/08/08 00:53:09;;;;;;;1.40;1.30;;;;;;;22.88;34.57;100087.91;4131665;28;20284;-65
2022/08/08 00:55:25;;;;;;;1.10;1.00;;;;;;;22.71;34.68;100074.19;4140318;28;20336;-63
2022/08/08 00:58:05;;;;;;;2.53;1.10;;;;;;;22.94;34.67;100043.63;4133394;28;20237;-63
2022/08/08 01:00:20;;;;;;;2.27;1.40;;;;;;;23.08;34.46;100045.06;4134286;28;20225;-64
2022/08/08 01:02:56;;;;;;;1.63;1.10;;;;;;;23.09;34.21;100057.53;4142222;28;20232;-63
2022/08/08 01:05:29;;;;;;;3.07;1.20;;;;;;;23.13;34.53;100049.75;4128404;28;20265;-64
2022/08/08 01:07:51;;;;;;;1.40;1.30;;;;;;;23.30;34.30;100047.16;4128434;28;20237;-64
2022/08/08 01:10:22;;;;;;;1.37;1.27;;;;;;;23.36;34.15;100040.81;4135506;28;20762;-64
2022/08/08 01:12:42;;;;;;;1.30;1.20;;;;;;;23.61;34.08;100037.03;4134296;28;20243;-64
2022/08/08 01:15:24;;;;;;;2.83;1.40;;;;;;;23.12;34.45;100069.81;4122531;28;20245;-64
2022/08/08 01:18:11;;;;;;;2.17;1.10;;;;;;;23.49;34.25;100050.59;4142085;28;20295;-64
2022/08/08 01:20:47;;;;;;;2.63;1.13;;;;;;;23.55;34.10;100050.50;4135909;28;20237;-64
2022/08/08 01:23:13;;;;;;;2.73;1.40;;;;;;;22.86;34.73;100065.63;4137426;28;20245;-64
2022/08/08 01:25:59;;;;;;;2.57;1.40;;;;;;;22.97;34.64;100060.25;4133956;28;20321;-64
2022/08/08 01:28:42;;;;;;;2.10;1.33;;;;;;;22.76;34.97;100044.50;4139495;28;20247;-64
2022/08/08 01:31:25;;;;;;;2.67;1.43;;;;;;;23.54;34.15;100050.72;4139687;28;20244;-64
2022/08/08 01:34:50;;;;;;;3.57;1.30;;;;;;;23.06;34.53;100060.72;4130528;28;20269;-64
2022/08/08 01:37:10;;;;;;;1.20;1.10;;;;;;;23.09;34.59;100057.53;4145593;28;20454;-64
2022/08/08 01:39:35;;;;;;;1.93;1.37;;;;;;;22.38;35.13;100079.03;4139612;28;20249;-64
2022/08/08 01:42:08;;;;;;;1.63;1.30;;;;;;;22.70;34.88;100051.69;4133018;28;20241;-64
2022/08/08 01:44:41;;;;;;;1.40;1.20;;;;;;;22.92;34.48;100060.13;4129733;28;20217;-64
2022/08/08 01:47:11;;;;;;;1.20;1.10;;;;;;;22.14;35.66;100067.25;4131669;28;20241;-64
2022/08/08 01:49:47;;;;;;;2.43;1.10;;;;;;;22.71;35.04;100039.81;4132560;28;20322;-64
2022/08/08 01:52:08;;;;;;;2.80;1.40;;;;;;;21.91;35.90;100065.22;4131658;28;20287;-64
2022/08/08 01:55:18;;;;;;;1.27;1.17;;;;;;;22.87;34.91;100032.84;4141039;28;20229;-64
2022/08/08 01:57:48;;;;;;;1.10;1.00;;;;;;;22.45;35.17;100062.69;4120811;28;20278;-64
2022/08/08 02:00:18;;;;;;;1.30;1.20;;;;;;;22.05;35.50;100057.78;4122117;28;20353;-64
2022/08/08 02:02:23;;;;;;;1.53;1.10;;;;;;;21.89;36.11;100042.97;4126773;28;20280;-64
2022/08/08 02:05:04;;;;;;;4.10;1.30;;;;;;;22.56;35.21;100042.13;4139960;28;20237;-64
2022/08/08 02:07:21;;;;;;;1.30;1.20;;;;;;;22.04;35.74;100040.72;4136979;28;20233;-64
2022/08/08 02:09:41;;;;;;;2.13;1.30;;;;;;;22.63;34.73;100032.00;4135197;28;20311;-64
2022/08/08 02:12:12;;;;;;;1.30;1.20;;;;;;;21.82;36.03;100029.53;4143430;28;20271;-62
2022/08/08 02:14:34;;;;;;;1.57;1.30;;;;;;;22.05;35.78;100033.41;4137023;28;20360;-65
2022/08/08 02:17:24;;;;;;;3.73;1.60;;;;;;;22.52;35.18;100013.81;4143614;28;20736;-65
2022/08/08 02:19:44;;;;;;;1.40;1.30;;;;;;;21.77;35.60;100042.09;4132017;28;20284;-65
2022/08/08 02:22:44;;;;;;;1.70;1.40;;;;;;;22.03;35.96;100033.63;4143394;28;20252;-65
2022/08/08 02:25:22;;;;;;;1.30;1.20;;;;;;;21.06;36.67;100060.47;4133964;28;20717;-64
2022/08/08 02:27:55;;;;;;;1.40;1.30;;;;;;;21.63;36.31;100033.28;4137561;28;20249;-65
2022/08/08 02:30:08;;;;;;;2.07;1.30;;;;;;;20.97;37.16;100059.88;4133178;28;20229;-65
2022/08/08 02:32:55;;;;;;;1.57;1.37;;;;;;;21.24;36.31;100047.00;4126108;28;20226;-63
2022/08/08 02:35:19;;;;;;;1.40;1.30;;;;;;;21.26;36.30;100049.44;4138834;28;20279;-63
2022/08/08 02:38:01;;;;;;;1.70;1.23;;;;;;;21.63;36.00;100033.28;4131585;28;20300;-65
2022/08/08 02:40:38;;;;;;;1.97;1.33;;;;;;;22.28;35.35;100014.56;4135891;28;20635;-63
2022/08/08 02:43:10;;;;;;;2.87;1.40;;;;;;;21.29;36.65;100022.81;4129797;28;20307;-65
2022/08/08 02:45:47;;;;;;;1.30;1.20;;;;;;;21.70;35.97;100020.53;4132385;28;20265;-63
2022/08/08 02:48:23;;;;;;;1.63;1.40;;;;;;;21.60;35.86;100041.84;4133215;28;20227;-65
2022/08/08 02:51:05;;;;;;;1.30;1.20;;;;;;;21.66;36.05;100036.38;4131901;28;20240;-65
2022/08/08 02:53:24;;;;;;;1.77;1.30;;;;;;;21.99;35.20;100037.03;4130525;28;20232;-62
2022/08/08 02:55:44;;;;;;;2.40;1.27;;;;;;;21.97;35.56;100031.84;4134972;28;20291;-66
2022/08/08 02:57:50;;;;;;;2.13;1.40;;;;;;;21.31;36.28;100044.22;4137260;28;20237;-64
2022/08/08 03:00:22;;;;;;;2.43;1.30;;;;;;;22.09;35.52;100019.19;4137603;28;20923;-65
2022/08/08 03:03:06;;;;;;;1.43;1.30;;;;;;;21.50;36.09;100045.06;4135471;28;20689;-63
2022/08/08 03:05:29;;;;;;;2.80;1.30;;;;;;;21.39;36.48;100027.69;4134782;28;20309;-63
2022/08/08 03:08:26;;;;;;;1.50;1.40;;;;;;;21.15;36.46;100053.72;4136037;28;20331;-65
2022/08/08 03:10:30;;;;;;;1.20;1.10;;;;;;;21.52;35.88;100032.94;4132429;28;20749;-64
2022/08/08 03:13:08;;;;;;;2.20;1.33;;;;;;;21.01;36.80;100036.78;4136188;28;20237;-63
2022/08/08 03:15:33;;;;;;;1.20;1.10;;;;;;;21.15;36.69;100035.59;4130671;28;20256;-63
2022/08/08 03:17:54;;;;;;;1.40;1.20;;;;;;;21.03;36.48;100013.06;4136762;28;20302;-63
2022/08/08 03:20:09;;;;;;;1.93;1.30;;;;;;;20.89;36.97;100028.53;4133657;28;20657;-65
2022/08/08 03:22:11;;;;;;;2.17;1.40;;;;;;;20.92;36.83;100013.75;4135321;28;20347;-63
2022/08/08 03:24:32;;;;;;;2.17;1.37;;;;;;;21.18;36.38;100021.66;4130301;28;20268;-64
2022/08/08 03:26:42;;;;;;;3.73;1.03;;;;;;;20.80;36.81;100028.00;4136282;28;20242;-63
2022/08/08 03:28:52;;;;;;;1.50;0.97;;;;;;;20.64;36.82;100038.50;4120512;28;20292;-64
2022/08/08 03:30:54;;;;;;;1.20;1.10;;;;;;;20.30;37.82;100041.41;4136370;28;20232;-64
2022/08/08 03:33:16;;;;;;;1.30;1.20;;;;;;;20.65;37.26;100016.69;4130304;28;20732;-67
2022/08/08 03:35:39;;;;;;;1.50;1.40;;;;;;;20.65;36.76;100030.19;4130633;28;20284;-64
2022/08/08 03:37:45;;;;;;;1.30;1.20;;;;;;;21.36;36.33;100028.97;4127990;28;20237;-64
2022/08/08 03:40:07;;;;;;;2.50;1.50;;;;;;;20.50;36.90;100072.88;4129424;28;20335;-64
2022/08/08 03:42:29;;;;;;;1.53;1.43;;;;;;;20.62;37.13;100066.56;4136784;28;20857;-64
2022/08/08 03:44:33;;;;;;;1.63;1.10;;;;;;;20.72;37.22;100038.22;4141279;28;20336;-64
2022/08/08 03:46:48;;;;;;;2.57;1.13;;;;;;;21.22;36.34;100013.91;4142670;28;20240;-64
2022/08/08 03:48:57;;;;;;;1.47;1.10;;;;;;;21.05;36.53;100016.34;4130527;28;20347;-64
2022/08/08 03:51:19;;;;;;;1.67;1.20;;;;;;;20.39;37.37;100071.69;4139135;28;20352;-63
2022/08/08 03:53:40;;;;;;;1.30;1.20;;;;;;;20.56;37.40;100048.50;4135671;28;20264;-64
2022/08/08 03:55:49;;;;;;;1.33;1.23;;;;;;;19.86;38.06;100086.22;4138009;28;20274;-64
2022/08/08 03:57:58;;;;;;;1.23;1.07;;;;;;;19.67;38.44;100079.81;4140689;28;20745;-64
2022/08/08 04:00:22;;;;;;;1.20;1.10;;;;;;;19.98;37.88;100054.00;4135547;28;20368;-64
2022/08/08 04:02:26;;;;;;;1.50;1.23;;;;;;;20.31;37.66;100026.84;4126033;28;20264;-64
2022/08/08 04:04:48;;;;;;;1.30;1.20;;;;;;;20.24;37.38;100058.44;4124811;28;20295;-64
2022/08/08 04:06:57;;;;;;;2.27;1.43;;;;;;;19.61;38.65;100057.22;4137687;28;20241;-64
2022/08/08 04:09:06;;;;;;;2.03;1.30;;;;;;;20.31;37.98;100016.06;4137806;28;20307;-63
2022/08/08 04:11:12;;;;;;;1.50;1.10;;;;;;;20.15;37.91;100041.66;4136041;28;20267;-64
2022/08/08 04:13:21;;;;;;;1.60;1.30;;;;;;;20.45;37.50;100038.44;4136818;28;20287;-64
2022/08/08 04:15:24;;;;;;;1.23;1.03;;;;;;;20.61;37.15;100032.47;4130627;28;20269;-64
2022/08/08 04:17:39;;;;;;;1.80;1.10;;;;;;;20.47;37.45;100076.03;4136973;28;20233;-64
2022/08/08 04:19:59;;;;;;;3.50;1.60;;;;;;;20.70;37.01;100048.41;4140183;28;20229;-64
2022/08/08 04:22:03;;;;;;;1.40;1.30;;;;;;;20.34;37.54;100068.81;4140331;28;20623;-64
2022/08/08 04:24:05;;;;;;;3.23;1.30;;;;;;;20.18;37.74;100084.44;4135461;28;20776;-64
2022/08/08 04:26:27;;;;;;;2.10;1.10;;;;;;;19.79;38.15;100086.25;4137675;28;20269;-64
2022/08/08 04:28:48;;;;;;;1.50;1.40;;;;;;;20.55;37.65;100037.94;4117646;28;20371;-63
2022/08/08 04:30:55;;;;;;;3.73;1.50;;;;;;;20.47;37.25;100060.63;4133048;28;20272;-64
2022/08/08 04:32:58;;;;;;;1.57;1.20;;;;;;;20.18;37.89;100097.09;4136063;28;20229;-63
2022/08/08 04:34:59;;;;;;;2.30;1.20;;;;;;;20.92;36.73;100063.25;4144624;28;20605;-64
2022/08/08 04:37:01;;;;;;;1.47;1.07;;;;;;;20.68;37.37;100091.06;4135274;28;20241;-64
2022/08/08 04:39:04;;;;;;;2.90;1.40;;;;;;;20.68;37.16;100083.75;4144738;28;20229;-63
2022/08/08 04:41:26;;;;;;;3.90;1.37;;;;;;;20.15;37.68;100111.03;4140847;28;20262;-63
2022/08/08 04:43:37;;;;;;;3.33;1.47;;;;;;;20.17;37.73;100093.56;4138441;28;20261;-63
2022/08/08 04:45:50;;;;;;;2.33;1.30;;;;;;;19.93;38.15;100115.88;4133772;28;20245;-63
2022/08/08 04:47:52;;;;;;;2.10;1.30;;;;;;;19.76;38.36;100097.44;4131965;28;20924;-65
2022/08/08 04:49:54;;;;;;;1.93;1.20;;;;;;;20.13;38.37;100065.34;4139177;28;20307;-63
2022/08/08 04:52:02;;;;;;;2.07;1.00;;;;;;;20.66;37.30;100076.94;4131819;28;20233;-64
2022/08/08 04:54:04;;;;;;;1.83;1.30;;;;;;;20.23;37.90;100067.59;4130242;28;20317;-63
2022/08/08 04:56:26;;;;;;;1.80;1.30;;;;;;;19.79;38.31;100113.22;4130299;28;20276;-63
2022/08/08 04:58:29;;;;;;;2.50;1.43;;;;;;;20.06;38.08;100083.44;4132821;28;20240;-64
2022/08/08 05:00:30;;;;;;;2.80;1.20;;;;;;;19.79;38.61;100099.72;4131051;28;20288;-64
2022/08/08 05:02:32;;;;;;;1.80;1.17;;;;;;;20.19;38.01;100131.16;4138953;28;20226;-62
2022/08/08 05:04:34;;;;;;;3.20;1.60;;;;;;;20.16;37.94;100131.56;4131225;28;20664;-64
2022/08/08 05:06:37;;;;;;;2.53;1.47;;;;;;;20.29;37.98;100119.94;4134736;28;20329;-65
2022/08/08 05:08:43;;;;;;;1.73;1.27;;;;;;;20.43;37.96;100102.59;4136343;28;20241;-64
2022/08/08 05:10:44;;;;;;;1.87;1.20;;;;;;;20.32;38.02;100133.00;4134295;28;20241;-64
2022/08/08 05:12:46;;;;;;;1.60;1.50;;;;;;;20.62;37.79;100115.19;4133583;28;20241;-63
2022/08/08 05:15:03;;;;;;;1.40;1.30;;;;;;;20.25;38.06;100166.22;4126824;28;20289;-63
2022/08/08 05:17:06;;;;;;;1.83;1.30;;;;;;;20.10;38.75;100133.25;4131212;28;20335;-65
2022/08/08 05:19:11;;;;;;;2.80;1.40;;;;;;;20.30;38.53;100133.22;4134949;28;20995;-64
2022/08/08 05:21:33;;;;;;;2.87;1.40;;;;;;;20.83;37.62;100126.69;4136576;28;20710;-64
2022/08/08 05:23:55;;;;;;;3.67;1.40;;;;;;;21.01;37.66;100126.00;4137602;28;20300;-64
2022/08/08 05:26:05;;;;;;;1.93;1.47;;;;;;;20.24;38.49;100134.84;4144594;28;20275;-64
2022/08/08 05:28:06;;;;;;;2.70;1.40;;;;;;;20.41;38.52;100151.44;4133207;28;20242;-64
2022/08/08 05:30:12;;;;;;;2.30;1.30;;;;;;;20.51;38.32;100144.75;4137850;28;20899;-64
2022/08/08 05:32:14;;;;;;;1.40;1.30;;;;;;;20.98;37.68;100115.63;4137840;28;20229;-64
2022/08/08 05:34:40;;;;;;;2.40;1.53;;;;;;;20.83;38.12;100118.59;4135466;28;20325;-63
2022/08/08 05:36:43;;;;;;;3.07;1.20;;;;;;;21.13;37.70;100128.81;4122866;28;20245;-62
2022/08/08 05:38:47;;;;;;;1.47;1.30;;;;;;;21.15;37.75;100121.31;4136153;28;20234;-62
2022/08/08 05:40:53;;;;;;;1.27;1.17;;;;;;;20.80;38.26;100181.19;4127310;28;20244;-63
2022/08/08 05:43:05;;;;;;;3.60;1.20;;;;;;;21.43;37.62;100130.88;4121379;28;20769;-64
2022/08/08 05:45:28;;;;;;;3.03;1.40;;;;;;;21.12;37.67;100184.78;4132075;28;20348;-64
2022/08/08 05:47:44;;;;;;;2.00;1.00;;;;;;;21.10;37.70;100172.50;4137852;28;20753;-63
2022/08/08 05:50:04;;;;;;;1.47;1.37;;;;;;;21.56;37.25;100141.53;4134066;28;20230;-63
2022/08/08 05:52:06;;;;;;;2.60;1.30;;;;;;;21.09;37.78;100189.78;4133183;28;20229;-63
2022/08/08 05:54:10;;;;;;;2.67;1.40;;;;;;;21.13;37.98;100178.31;4143532;28;20248;-64
2022/08/08 05:56:36;;;;;;;1.30;1.20;;;;;;;21.00;38.03;100186.50;4138307;28;20244;-65
2022/08/08 05:58:47;;;;;;;2.23;1.30;;;;;;;20.67;38.59;100202.84;4131773;28;20240;-65
2022/08/08 06:01:05;;;;;;;3.50;1.73;;;;;;;21.63;37.24;100166.72;4134887;28;20295;-64
2022/08/08 06:03:14;;;;;;;3.27;1.30;;;;;;;21.66;37.33;100166.28;4139482;28;20224;-64
2022/08/08 06:05:30;;;;;;;2.13;1.40;;;;;;;21.02;38.21;100233.06;4130194;28;20238;-65
2022/08/08 06:07:40;;;;;;;3.50;1.50;;;;;;;21.51;37.80;100181.97;4137980;28;20268;-65
2022/08/08 06:09:47;;;;;;;2.23;1.30;;;;;;;21.89;37.52;100181.84;4131856;28;20233;-64
2022/08/08 06:12:03;;;;;;;1.20;1.10;;;;;;;21.69;37.55;100192.06;4144354;28;20324;-64
2022/08/08 06:14:06;;;;;;;1.57;1.20;;;;;;;21.44;37.83;100210.97;4129928;28;20233;-65
2022/08/08 06:16:13;;;;;;;1.97;1.50;;;;;;;21.26;38.03;100227.94;4143764;28;20263;-65
2022/08/08 06:18:16;;;;;;;1.43;1.33;;;;;;;21.76;37.57;100179.28;4136287;28;20217;-63
2022/08/08 06:20:22;;;;;;;2.83;1.40;;;;;;;21.69;37.90;100184.75;4132003;28;20233;-64
2022/08/08 06:22:26;;;;;;;1.93;1.53;;;;;;;21.29;38.59;100200.44;4132703;28;20238;-64
2022/08/08 06:24:36;;;;;;;8.07;1.73;;;;;;;21.35;38.25;100223.94;4143586;28;20244;-64
2022/08/08 06:26:49;;;;;;;11.23;1.60;;;;;;;21.99;37.93;100178.63;4130806;28;20248;-64
2022/08/08 06:29:02;;;;;;;4.60;1.30;;;;;;;22.01;37.87;100190.06;4130180;28;20233;-64
2022/08/08 06:31:24;;;;;;;2.33;1.27;;;;;;;21.95;37.76;100209.09;4136907;28;20340;-63
2022/08/08 06:34:16;;;;;;;2.83;1.43;;;;;;;21.01;38.66;100263.03;4139034;28;20952;-64
2022/08/08 06:36:42;;;;;;;1.53;1.30;;;;;;;22.42;37.21;100182.34;4140469;28;20233;-63
2022/08/08 06:38:54;;;;;;;1.40;1.30;;;;;;;21.66;38.29;100239.34;4138253;28;20230;-65
2022/08/08 06:41:05;;;;;;;3.00;1.70;;;;;;;22.23;37.43;100205.88;4139575;28;20233;-65
2022/08/08 06:43:09;;;;;;;3.17;1.40;;;;;;;22.34;37.24;100207.03;4133899;28;20237;-65
2022/08/08 06:45:12;;;;;;;4.77;1.43;;;;;;;22.04;38.13;100226.72;4135667;28;20230;-63
2022/08/08 06:47:15;;;;;;;1.57;1.30;;;;;;;22.61;37.20;100202.97;4134595;28;20707;-65
2022/08/08 06:49:23;;;;;;;2.53;1.43;;;;;;;22.95;36.96;100210.69;4140028;28;20316;-63
2022/08/08 06:51:45;;;;;;;1.47;1.27;;;;;;;22.08;37.70;100255.00;4129494;28;20303;-63
2022/08/08 06:53:59;;;;;;;2.17;1.60;;;;;;;22.15;37.76;100253.03;4136809;28;20275;-63
2022/08/08 06:56:01;;;;;;;3.67;1.40;;;;;;;22.61;37.29;100215.69;4133358;28;20251;-65
2022/08/08 06:58:03;;;;;;;3.73;1.43;;;;;;;22.87;37.50;100238.91;4135046;28;20225;-63
2022/08/08 07:00:07;;;;;;;3.88;1.50;;;;;;;23.12;36.59;100227.13;4133866;28;20229;-64
2022/08/08 07:02:23;;;;;;;2.17;1.60;;;;;;;22.95;36.55;100251.38;4142489;28;20232;-65
2022/08/08 07:04:44;;;;;;;3.80;1.30;;;;;;;22.73;37.09;100248.28;4131772;28;20240;-64
2022/08/08 07:06:59;;;;;;;6.80;1.43;;;;;;;22.92;36.52;100260.78;4139954;28;20264;-65
2022/08/08 07:09:17;;;;;;;1.53;1.40;;;;;;;22.66;36.93;100291.72;4129975;28;20249;-64
2022/08/08 07:11:27;;;;;;;1.73;1.40;;;;;;;22.98;36.79;100261.75;4136397;28;20375;-65
2022/08/08 07:13:52;;;;;;;5.70;1.50;;;;;;;23.34;36.47;100247.25;4131421;28;20237;-64
2022/08/08 07:16:15;;;;;;;2.77;1.50;;;;;;;23.45;36.53;100253.78;4136122;28;20233;-64
2022/08/08 07:18:31;;;;;;;3.93;1.17;;;;;;;23.05;36.81;100275.19;4127918;28;20221;-64
2022/08/08 07:20:47;;;;;;;1.73;1.63;;;;;;;23.49;36.41;100256.84;4132804;28;20248;-64
2022/08/08 07:23:09;;;;;;;4.15;1.40;;;;;;;23.68;36.14;100263.03;4134433;28;20237;-63
2022/08/08 07:25:11;;;;;;;1.63;1.15;;;;;;;23.04;36.78;100293.38;4139728;28;20237;-64
2022/08/08 07:27:22;;;;;;;1.55;1.45;;;;;;;23.80;36.05;100263.06;4137016;28;20245;-64
2022/08/08 07:29:36;;;;;;;5.53;1.50;;;;;;;23.36;35.92;100287.72;4133130;28;20757;-64
2022/08/08 07:31:58;;;;;;;11.98;1.52;;;;;;;23.81;36.00;100281.00;4135771;28;20686;-64
2022/08/08 07:34:03;;;;;;;2.85;1.20;;;;;;;23.66;36.12;100279.56;4149269;28;20540;-63
2022/08/08 07:36:10;;;;;;;1.20;1.20;;;;;;;23.23;36.12;100301.47;4132390;28;20243;-63
2022/08/08 07:38:17;;;;;;;2.17;1.30;;;;;;;23.08;36.50;100289.16;4129717;28;20218;-64
2022/08/08 07:40:26;;;;;;;1.30;1.10;;;;;;;23.23;36.12;100293.31;4139787;28;20233;-65
2022/08/08 07:42:31;;;;;;;2.92;1.40;;;;;;;23.66;35.73;100274.13;4146929;28;20288;-65
2022/08/08 07:44:35;;;;;;;2.67;1.00;;;;;;;23.34;36.18;100287.13;4138976;28;20616;-64
2022/08/08 07:46:44;;;;;;;1.52;1.13;;;;;;;23.95;35.67;100285.16;4119615;28;20241;-63
2022/08/08 07:48:46;;;;;;;3.72;1.20;;;;;;;23.88;35.67;100289.88;4140132;28;20241;-64
2022/08/08 07:50:52;;;;;;;2.78;1.48;;;;;;;24.50;35.37;100289.41;4132422;28;20325;-64
2022/08/08 07:52:58;;;;;;;3.60;1.15;;;;;;;24.00;35.77;100306.19;4130665;28;20238;-64
2022/08/08 07:54:59;;;;;;;1.75;1.20;;;;;;;24.17;35.29;100288.13;4135233;28;20236;-64
2022/08/08 07:57:23;;;;;;;2.42;1.25;;;;;;;24.72;35.23;100273.28;4132816;28;20238;-64
2022/08/08 07:59:33;;;;;;;2.95;1.58;;;;;;;24.13;35.70;100304.06;4137126;28;20232;-63
2022/08/08 08:01:44;;;;;;;1.95;1.20;;;;;;;24.64;34.65;100288.06;4134344;28;20288;-63
2022/08/08 08:04:13;;;;;;;1.35;1.10;;;;;;;24.60;34.96;100302.41;4132562;28;20787;-64
2022/08/08 08:06:18;;;;;;;1.75;1.25;;;;;;;24.82;34.54;100305.34;4140090;28;20232;-64
2022/08/08 08:09:03;;;;;;;4.30;1.40;;;;;;;24.18;35.51;100313.44;4134017;28;20997;-64
2022/08/08 08:11:18;;;;;;;3.90;1.35;;;;;;;24.81;34.88;100299.06;4141291;28;20232;-63
2022/08/08 08:13:29;;;;;;;3.97;1.52;;;;;;;24.95;34.78;100318.69;4146974;28;20232;-63
2022/08/08 08:16:05;;;;;;;2.75;1.10;;;;;;;24.69;34.92;100320.81;4136345;28;20718;-63
2022/08/08 08:18:08;;;;;;;1.40;1.30;;;;;;;23.88;35.72;100339.56;4126842;28;20256;-64
2022/08/08 08:20:17;;;;;;;1.45;1.35;;;;;;;23.86;36.04;100349.84;4144581;28;20299;-64
2022/08/08 08:22:18;;;;;;;1.60;1.02;;;;;;;24.00;35.89;100339.59;4134890;28;20278;-64
2022/08/08 08:24:32;;;;;;;1.80;1.20;;;;;;;24.62;35.43;100313.88;4142716;28;20224;-64
2022/08/08 08:26:35;;;;;;;1.77;1.30;;;;;;;24.55;35.87;100333.03;4138971;28;20248;-64
2022/08/08 08:28:39;;;;;;;1.30;1.20;;;;;;;25.09;34.63;100319.22;4138672;28;20249;-64
2022/08/08 08:30:41;;;;;;;3.08;1.45;;;;;;;24.79;35.30;100335.75;4134356;28;20768;-65
2022/08/08 08:32:46;;;;;;;1.50;1.30;;;;;;;25.53;34.64;100303.19;4130935;28;21020;-63
2022/08/08 08:34:52;;;;;;;3.53;1.77;;;;;;;24.95;35.06;100339.59;4130089;28;20328;-64
2022/08/08 08:36:54;;;;;;;1.98;1.00;;;;;;;25.48;35.01;100313.16;4136223;28;20325;-64
2022/08/08 08:38:56;;;;;;;1.52;1.13;;;;;;;25.44;34.77;100325.59;4141727;28;20291;-65
2022/08/08 08:41:19;;;;;;;2.83;1.20;;;;;;;25.31;34.92;100321.25;4137490;28;20269;-64
2022/08/08 08:43:24;;;;;;;2.53;1.23;;;;;;;25.79;34.75;100306.34;4139343;28;20668;-64
2022/08/08 08:45:30;;;;;;;1.50;1.13;;;;;;;25.01;35.66;100334.00;4136224;28;20242;-64
2022/08/08 08:47:33;;;;;;;1.40;1.30;;;;;;;25.75;35.10;100300.56;4135026;28;20237;-64
2022/08/08 08:49:45;;;;;;;2.05;1.20;;;;;;;25.86;34.57;100306.97;4133452;28;20237;-65
2022/08/08 08:51:48;;;;;;;1.80;1.27;;;;;;;25.76;35.06;100323.16;4143362;28;20237;-64
2022/08/08 08:53:53;;;;;;;2.70;1.20;;;;;;;25.74;34.68;100326.13;4137993;28;20235;-64
2022/08/08 08:56:02;;;;;;;1.98;1.20;;;;;;;25.58;35.30;100324.25;4133463;28;20244;-64
2022/08/08 08:58:18;;;;;;;2.08;1.35;;;;;;;25.57;35.03;100341.63;4140929;28;20225;-64
2022/08/08 09:00:19;;;;;;;1.42;1.33;;;;;;;26.25;34.52;100314.44;4140523;28;20282;-63
2022/08/08 09:02:25;;;;;;;2.70;1.30;;;;;;;26.27;34.17;100326.75;4137266;28;20312;-64
2022/08/08 09:04:33;;;;;;;2.33;1.65;;;;;;;26.18;34.53;100317.31;4130776;28;20699;-64
2022/08/08 09:06:46;;;;;;;2.13;1.50;;;;;;;25.99;35.13;100335.03;4143572;28;20233;-63
2022/08/08 09:09:20;;;;;;;2.28;1.45;;;;;;;26.53;34.91;100314.31;4131744;28;20264;-63
2022/08/08 09:11:43;;;;;;;2.45;1.50;;;;;;;26.19;34.66;100318.97;4134827;28;20408;-63
2022/08/08 09:13:52;;;;;;;2.83;1.40;;;;;;;25.96;35.50;100339.91;4135728;28;20237;-64
2022/08/08 09:15:57;;;;;;;1.52;1.30;;;;;;;26.13;34.71;100328.16;4145290;28;20254;-63
2022/08/08 09:18:06;;;;;;;2.03;1.30;;;;;;;26.62;34.30;100313.88;4137707;28;20377;-64
2022/08/08 09:20:10;;;;;;;1.83;1.10;;;;;;;26.20;34.71;100338.88;4138303;28;20225;-63
2022/08/08 09:22:33;;;;;;;1.92;1.20;;;;;;;26.45;34.55;100341.16;4137607;28;20336;-63
2022/08/08 09:24:37;;;;;;;4.32;1.20;;;;;;;27.05;34.04;100318.50;4147021;28;20721;-64
2022/08/08 09:26:52;;;;;;;1.63;1.27;;;;;;;26.69;34.73;100320.00;4133084;28;20308;-64
2022/08/08 09:28:59;;;;;;;1.80;1.35;;;;;;;26.39;35.14;100336.72;4135429;28;20292;-64
2022/08/08 09:31:14;;;;;;;2.13;1.50;;;;;;;26.19;35.19;100337.25;4133400;28;20732;-64
2022/08/08 09:33:18;;;;;;;3.20;1.60;;;;;;;26.41;34.98;100338.13;4133883;28;20624;-64
2022/08/08 09:35:44;;;;;;;1.35;1.25;;;;;;;26.60;34.87;100319.59;4132231;28;20746;-64
2022/08/08 09:37:59;;;;;;;2.72;1.60;;;;;;;26.28;34.63;100347.44;4142362;28;20241;-64
2022/08/08 09:40:05;;;;;;;4.03;1.50;;;;;;;26.64;34.73;100325.34;4142328;28;20229;-65
2022/08/08 09:42:14;;;;;;;2.90;1.60;;;;;;;27.11;34.50;100319.41;4132867;28;20267;-64
2022/08/08 09:44:34;;;;;;;3.00;1.50;;;;;;;27.15;34.58;100320.56;4136054;28;20263;-64
2022/08/08 09:46:40;;;;;;;3.47;1.63;;;;;;;26.81;35.07;100328.88;4135276;28;20320;-63
2022/08/08 09:48:59;;;;;;;2.05;1.40;;;;;;;27.45;34.54;100313.78;4124084;28;20753;-64
2022/08/08 09:51:28;;;;;;;4.38;1.50;;;;;;;27.16;35.14;100315.91;4129623;28;20284;-64
2022/08/08 09:53:48;;;;;;;6.93;1.60;;;;;;;27.90;34.38;100285.22;4124992;28;20237;-64
2022/08/08 09:56:11;;;;;;;4.15;1.67;;;;;;;27.77;34.79;100321.16;4131860;28;20252;-63
2022/08/08 09:58:31;;;;;;;3.05;1.60;;;;;;;27.61;34.64;100331.16;4140396;28;20245;-63
2022/08/08 10:00:45;;;;;;;1.40;1.30;;;;;;;27.90;34.07;100322.66;4135468;28;20721;-63
2022/08/08 10:02:56;;;;;;;2.97;1.80;;;;;;;28.42;33.81;100324.66;4136296;28;20312;-63
2022/08/08 10:05:09;;;;;;;1.83;1.52;;;;;;;28.44;33.76;100313.47;4131941;28;20316;-63
2022/08/08 10:07:16;;;;;;;2.42;1.58;;;;;;;28.49;34.02;100318.97;4136364;28;20784;-63
2022/08/08 10:09:29;;;;;;;1.60;1.50;;;;;;;28.50;33.95;100324.19;4136393;28;20237;-63
2022/08/08 10:11:37;;;;;;;4.07;1.98;;;;;;;28.18;33.90;100333.28;4136940;28;20706;-63
2022/08/08 10:14:03;;;;;;;3.25;1.90;;;;;;;27.85;34.11;100333.53;4135006;28;20264;-63
2022/08/08 10:16:06;;;;;;;2.13;1.40;;;;;;;28.60;33.61;100315.22;4141772;28;20228;-63
2022/08/08 10:18:09;;;;;;;1.48;1.30;;;;;;;28.48;33.35;100309.94;4135251;28;21037;-63
2022/08/08 10:20:22;;;;;;;1.90;1.73;;;;;;;28.24;34.03;100320.47;4140520;28;20233;-64
2022/08/08 10:22:50;;;;;;;2.38;1.58;;;;;;;28.41;33.85;100301.16;4134218;28;20760;-64
2022/08/08 10:25:02;;;;;;;4.30;1.60;;;;;;;29.16;33.71;100298.19;4142683;28;20231;-64
2022/08/08 10:27:05;;;;;;;4.22;1.33;;;;;;;29.26;33.13;100308.38;4131242;28;20261;-64
2022/08/08 10:29:14;;;;;;;3.00;1.67;;;;;;;28.70;33.68;100319.94;4141184;28;20245;-64
2022/08/08 10:33:52;;;;;;;2.13;1.52;;;;;;;29.23;32.57;100306.16;4134034;28;20229;-63
2022/08/08 10:36:15;;;;;;;6.05;1.80;;;;;;;28.79;33.26;100307.38;4139342;28;20236;-63